sensor_id;sensor_type;location;lat;lon;timestamp;pressure;altitude;pressure_sealevel;temperature;humidity
21109;BME280;10712;52.944;9.098;2023-05-12T00:00:01;101543.38;;;20.40;59.87
21109;BME280;10712;52.944;9.098;2023-05-12T00:02:37;101540.22;;;20.35;59.77
21109;BME280;10712;52.944;9.098;2023-05-12T00:05:03;101544.41;;;20.28;59.65
21109;BME280;10712;52.944;9.098;2023-05-12T00:07:29;101535.53;;;20.17;59.47
21109;BME280;10712;52.944;9.098;2023-05-12T00:09:55;101541.19;;;20.14;59.33
21109;BME280;10712;52.944;9.098;2023-05-12T00:12:21;101547.44;;;20.14;59.25
21109;BME280;10712;52.944;9.098;2023-05-12T00:14:47;101542.56;;;20.08;59.17
21109;BME280;10712;52.944;9.098;2023-05-12T00:17:12;101550.41;;;19.90;59.67
21109;BME280;10712;52.944;9.098;2023-05-12T00:19:38;101546.56;;;19.93;59.77
21109;BME280;10712;52.944;9.098;2023-05-12T00:22:07;101541.25;;;20.02;59.10
21109;BME280;10712;52.944;9.098;2023-05-12T00:24:33;101548.50;;;20.02;59.14
21109;BME280;10712;52.944;9.098;2023-05-12T00:26:58;101552.31;;;19.99;58.93
21109;BME280;10712;52.944;9.098;2023-05-12T00:29:24;101551.47;;;19.99;59.19
21109;BME280;10712;52.944;9.098;2023-05-12T00:31:50;101555.66;;;19.92;58.99
21109;BME280;10712;52.944;9.098;2023-05-12T00:34:16;101552.13;;;19.91;58.78
21109;BME280;10712;52.944;9.098;2023-05-12T00:36:41;101550.25;;;19.92;59.08
21109;BME280;10712;52.944;9.098;2023-05-12T00:39:07;101563.78;;;19.92;58.99
21109;BME280;10712;52.944;9.098;2023-05-12T00:41:33;101561.34;;;19.89;58.87
21109;BME280;10712;52.944;9.098;2023-05-12T00:43:59;101556.94;;;19.88;58.88
21109;BME280;10712;52.944;9.098;2023-05-12T00:46:26;101560.56;;;19.77;59.22
21109;BME280;10712;52.944;9.098;2023-05-12T00:48:52;101555.91;;;19.68;59.56
21109;BME280;10712;52.944;9.098;2023-05-12T00:51:18;101560.56;;;19.66;59.74
21109;BME280;10712;52.944;9.098;2023-05-12T00:53:44;101564.81;;;19.80;59.24
21109;BME280;10712;52.944;9.098;2023-05-12T00:56:12;101562.84;;;19.82;58.84
21109;BME280;10712;52.944;9.098;2023-05-12T00:58:41;101565.44;;;19.83;58.97
21109;BME280;10712;52.944;9.098;2023-05-12T01:01:07;101563.84;;;19.81;59.12
21109;BME280;10712;52.944;9.098;2023-05-12T01:03:33;101567.06;;;19.75;58.95
21109;BME280;10712;52.944;9.098;2023-05-12T01:06:22;101565.41;;;19.51;59.78
21109;BME280;10712;52.944;9.098;2023-05-12T01:08:51;101568.25;;;19.50;59.93
21109;BME280;10712;52.944;9.098;2023-05-12T01:11:18;101562.00;;;19.49;60.28
21109;BME280;10712;52.944;9.098;2023-05-12T01:13:44;101565.47;;;19.72;59.65
21109;BME280;10712;52.944;9.098;2023-05-12T01:16:14;101569.88;;;19.84;59.39
21109;BME280;10712;52.944;9.098;2023-05-12T01:18:45;101573.16;;;19.88;59.39
21109;BME280;10712;52.944;9.098;2023-05-12T01:21:15;101570.75;;;19.74;59.92
21109;BME280;10712;52.944;9.098;2023-05-12T01:23:57;101570.81;;;19.62;60.50
21109;BME280;10712;52.944;9.098;2023-05-12T01:26:27;101573.75;;;19.59;60.73
21109;BME280;10712;52.944;9.098;2023-05-12T01:28:56;101571.78;;;19.61;60.38
21109;BME280;10712;52.944;9.098;2023-05-12T01:31:23;101569.13;;;19.82;60.02
21109;BME280;10712;52.944;9.098;2023-05-12T01:33:50;101573.16;;;19.88;59.91
21109;BME280;10712;52.944;9.098;2023-05-12T01:36:15;101571.19;;;19.90;59.92
21109;BME280;10712;52.944;9.098;2023-05-12T01:38:41;101568.22;;;19.93;60.06
21109;BME280;10712;52.944;9.098;2023-05-12T01:41:07;101561.81;;;19.94;60.01
21109;BME280;10712;52.944;9.098;2023-05-12T01:43:33;101565.78;;;19.90;60.18
21109;BME280;10712;52.944;9.098;2023-05-12T01:46:00;101565.78;;;19.90;60.07
21109;BME280;10712;52.944;9.098;2023-05-12T01:48:27;101574.88;;;19.89;60.01
21109;BME280;10712;52.944;9.098;2023-05-12T01:50:54;101573.84;;;20.01;59.61
21109;BME280;10712;52.944;9.098;2023-05-12T01:53:20;101571.75;;;20.04;59.57
21109;BME280;10712;52.944;9.098;2023-05-12T01:55:46;101568.50;;;20.11;59.61
21109;BME280;10712;52.944;9.098;2023-05-12T01:58:12;101571.69;;;20.16;59.78
21109;BME280;10712;52.944;9.098;2023-05-12T02:00:38;101577.94;;;20.16;59.50
21109;BME280;10712;52.944;9.098;2023-05-12T02:03:07;101582.84;;;20.22;59.69
21109;BME280;10712;52.944;9.098;2023-05-12T02:05:33;101583.81;;;20.21;59.76
21109;BME280;10712;52.944;9.098;2023-05-12T02:08:00;101586.53;;;20.21;59.71
21109;BME280;10712;52.944;9.098;2023-05-12T02:10:25;101588.25;;;20.22;59.96
21109;BME280;10712;52.944;9.098;2023-05-12T02:12:52;101591.94;;;20.21;59.88
21109;BME280;10712;52.944;9.098;2023-05-12T02:15:18;101587.38;;;20.22;60.01
21109;BME280;10712;52.944;9.098;2023-05-12T02:17:45;101586.53;;;20.21;59.98
21109;BME280;10712;52.944;9.098;2023-05-12T02:20:12;101598.09;;;20.23;59.93
21109;BME280;10712;52.944;9.098;2023-05-12T02:22:38;101600.50;;;20.26;59.84
21109;BME280;10712;52.944;9.098;2023-05-12T02:25:05;101598.81;;;20.25;59.95
21109;BME280;10712;52.944;9.098;2023-05-12T02:27:31;101599.94;;;20.23;60.05
21109;BME280;10712;52.944;9.098;2023-05-12T02:29:57;101585.22;;;20.16;60.12
21109;BME280;10712;52.944;9.098;2023-05-12T02:32:24;101599.59;;;20.16;60.16
21109;BME280;10712;52.944;9.098;2023-05-12T02:34:54;101593.91;;;20.19;60.07
21109;BME280;10712;52.944;9.098;2023-05-12T02:37:22;101600.06;;;20.21;59.94
21109;BME280;10712;52.944;9.098;2023-05-12T02:39:48;101592.22;;;20.18;60.27
21109;BME280;10712;52.944;9.098;2023-05-12T02:42:14;101586.31;;;20.13;60.38
21109;BME280;10712;52.944;9.098;2023-05-12T02:44:40;101589.28;;;20.10;60.23
21109;BME280;10712;52.944;9.098;2023-05-12T02:47:06;101596.16;;;20.14;60.20
21109;BME280;10712;52.944;9.098;2023-05-12T02:49:31;101604.16;;;20.16;60.33
21109;BME280;10712;52.944;9.098;2023-05-12T02:51:57;101603.75;;;20.20;60.37
21109;BME280;10712;52.944;9.098;2023-05-12T02:54:23;101603.91;;;20.19;60.40
21109;BME280;10712;52.944;9.098;2023-05-12T02:56:49;101616.50;;;20.29;60.22
21109;BME280;10712;52.944;9.098;2023-05-12T02:59:15;101614.19;;;20.25;60.47
21109;BME280;10712;52.944;9.098;2023-05-12T03:01:41;101615.31;;;20.22;60.44
21109;BME280;10712;52.944;9.098;2023-05-12T03:04:06;101610.53;;;20.15;60.83
21109;BME280;10712;52.944;9.098;2023-05-12T03:06:32;101601.50;;;20.04;60.94
21109;BME280;10712;52.944;9.098;2023-05-12T03:08:58;101606.06;;;20.04;60.75
21109;BME280;10712;52.944;9.098;2023-05-12T03:11:24;101600.38;;;20.07;60.93
21109;BME280;10712;52.944;9.098;2023-05-12T03:13:51;101604.78;;;20.08;60.83
21109;BME280;10712;52.944;9.098;2023-05-12T03:16:16;101610.94;;;20.10;60.89
21109;BME280;10712;52.944;9.098;2023-05-12T03:18:43;101606.50;;;20.09;60.77
21109;BME280;10712;52.944;9.098;2023-05-12T03:21:10;101601.09;;;20.09;60.92
21109;BME280;10712;52.944;9.098;2023-05-12T03:23:35;101604.06;;;20.06;60.83
21109;BME280;10712;52.944;9.098;2023-05-12T03:26:01;101613.19;;;20.05;60.75
21109;BME280;10712;52.944;9.098;2023-05-12T03:28:27;101619.00;;;19.89;61.14
21109;BME280;10712;52.944;9.098;2023-05-12T03:30:53;101620.13;;;19.87;61.35
21109;BME280;10712;52.944;9.098;2023-05-12T03:33:19;101610.16;;;19.87;61.60
21109;BME280;10712;52.944;9.098;2023-05-12T03:35:45;101616.94;;;19.82;61.61
21109;BME280;10712;52.944;9.098;2023-05-12T03:38:11;101614.00;;;19.74;61.66
21109;BME280;10712;52.944;9.098;2023-05-12T03:40:37;101620.41;;;19.73;62.00
21109;BME280;10712;52.944;9.098;2023-05-12T03:43:02;101615.97;;;19.72;62.02
21109;BME280;10712;52.944;9.098;2023-05-12T03:45:28;101616.75;;;19.62;61.98
21109;BME280;10712;52.944;9.098;2023-05-12T03:47:54;101625.81;;;19.73;62.15
21109;BME280;10712;52.944;9.098;2023-05-12T03:50:20;101630.22;;;19.74;61.69
21109;BME280;10712;52.944;9.098;2023-05-12T03:52:46;101623.81;;;19.86;61.10
21109;BME280;10712;52.944;9.098;2023-05-12T03:55:11;101633.88;;;19.95;60.87
21109;BME280;10712;52.944;9.098;2023-05-12T03:57:38;101633.63;;;19.98;60.40
21109;BME280;10712;52.944;9.098;2023-05-12T04:00:05;101626.22;;;20.00;60.83
21109;BME280;10712;52.944;9.098;2023-05-12T04:02:42;101625.97;;;20.03;60.71
21109;BME280;10712;52.944;9.098;2023-05-12T04:05:08;101636.91;;;20.01;60.34
21109;BME280;10712;52.944;9.098;2023-05-12T04:07:34;101634.31;;;20.00;60.57
21109;BME280;10712;52.944;9.098;2023-05-12T04:10:01;101635.47;;;19.97;60.51
21109;BME280;10712;52.944;9.098;2023-05-12T04:12:28;101644.69;;;19.95;60.55
21109;BME280;10712;52.944;9.098;2023-05-12T04:14:53;101644.44;;;19.98;60.29
21109;BME280;10712;52.944;9.098;2023-05-12T04:17:19;101645.66;;;19.94;60.36
21109;BME280;10712;52.944;9.098;2023-05-12T04:19:45;101643.22;;;19.91;60.33
21109;BME280;10712;52.944;9.098;2023-05-12T04:22:12;101648.66;;;19.91;60.60
21109;BME280;10712;52.944;9.098;2023-05-12T04:24:37;101646.91;;;19.90;60.41
21109;BME280;10712;52.944;9.098;2023-05-12T04:27:05;101645.44;;;19.86;60.68
21109;BME280;10712;52.944;9.098;2023-05-12T04:29:32;101655.03;;;19.90;60.62
21109;BME280;10712;52.944;9.098;2023-05-12T04:31:58;101659.19;;;19.94;60.45
21109;BME280;10712;52.944;9.098;2023-05-12T04:34:25;101653.78;;;19.94;60.65
21109;BME280;10712;52.944;9.098;2023-05-12T04:36:51;101651.06;;;19.94;60.72
21109;BME280;10712;52.944;9.098;2023-05-12T04:39:17;101655.50;;;19.95;60.73
21109;BME280;10712;52.944;9.098;2023-05-12T04:41:43;101661.78;;;19.95;60.69
21109;BME280;10712;52.944;9.098;2023-05-12T04:44:09;101662.38;;;19.99;60.55
21109;BME280;10712;52.944;9.098;2023-05-12T04:46:35;101663.38;;;19.98;60.60
21109;BME280;10712;52.944;9.098;2023-05-12T04:49:00;101663.38;;;19.98;61.05
21109;BME280;10712;52.944;9.098;2023-05-12T04:51:26;101672.94;;;20.02;60.73
21109;BME280;10712;52.944;9.098;2023-05-12T04:53:52;101679.56;;;20.09;60.90
21109;BME280;10712;52.944;9.098;2023-05-12T04:56:18;101676.28;;;19.94;61.52
21109;BME280;10712;52.944;9.098;2023-05-12T04:58:44;101677.13;;;19.95;61.71
21109;BME280;10712;52.944;9.098;2023-05-12T05:01:10;101678.34;;;20.02;61.43
21109;BME280;10712;52.944;9.098;2023-05-12T05:03:39;101672.44;;;20.08;61.66
21109;BME280;10712;52.944;9.098;2023-05-12T05:06:05;101680.75;;;20.16;61.18
21109;BME280;10712;52.944;9.098;2023-05-12T05:08:32;101682.91;;;20.01;62.00
21109;BME280;10712;52.944;9.098;2023-05-12T05:10:58;101684.00;;;19.99;62.17
21109;BME280;10712;52.944;9.098;2023-05-12T05:13:25;101685.66;;;20.22;61.44
21109;BME280;10712;52.944;9.098;2023-05-12T05:15:52;101686.88;;;20.29;61.31
21109;BME280;10712;52.944;9.098;2023-05-12T05:18:19;101687.59;;;20.31;61.07
21109;BME280;10712;52.944;9.098;2023-05-12T05:20:45;101686.38;;;20.35;61.28
21109;BME280;10712;52.944;9.098;2023-05-12T05:23:12;101693.50;;;20.36;61.32
21109;BME280;10712;52.944;9.098;2023-05-12T05:25:40;101693.50;;;20.36;61.56
21109;BME280;10712;52.944;9.098;2023-05-12T05:28:06;101698.16;;;20.46;60.97
21109;BME280;10712;52.944;9.098;2023-05-12T05:30:33;101704.28;;;20.48;60.96
21109;BME280;10712;52.944;9.098;2023-05-12T05:33:00;101709.19;;;20.54;61.09
21109;BME280;10712;52.944;9.098;2023-05-12T05:35:26;101710.19;;;20.53;61.26
21109;BME280;10712;52.944;9.098;2023-05-12T05:37:52;101713.59;;;20.55;61.40
21109;BME280;10712;52.944;9.098;2023-05-12T05:40:19;101718.78;;;20.58;61.25
21109;BME280;10712;52.944;9.098;2023-05-12T05:42:45;101720.50;;;20.59;61.50
21109;BME280;10712;52.944;9.098;2023-05-12T05:45:11;101720.69;;;20.67;61.11
21109;BME280;10712;52.944;9.098;2023-05-12T05:47:38;101726.56;;;20.72;61.31
21109;BME280;10712;52.944;9.098;2023-05-12T05:50:05;101730.47;;;20.79;61.20
21109;BME280;10712;52.944;9.098;2023-05-12T05:52:33;101725.53;;;20.84;61.14
21109;BME280;10712;52.944;9.098;2023-05-12T05:55:01;101727.00;;;20.88;61.12
21109;BME280;10712;52.944;9.098;2023-05-12T05:57:28;101733.84;;;20.92;61.08
21109;BME280;10712;52.944;9.098;2023-05-12T05:59:55;101734.06;;;21.00;60.99
21109;BME280;10712;52.944;9.098;2023-05-12T06:02:21;101729.09;;;21.05;60.99
21109;BME280;10712;52.944;9.098;2023-05-12T06:04:48;101731.69;;;21.07;61.27
21109;BME280;10712;52.944;9.098;2023-05-12T06:07:14;101727.56;;;21.12;61.09
21109;BME280;10712;52.944;9.098;2023-05-12T06:09:41;101731.50;;;21.19;61.24
21109;BME280;10712;52.944;9.098;2023-05-12T06:12:07;101742.06;;;21.23;61.27
21109;BME280;10712;52.944;9.098;2023-05-12T06:14:33;101736.13;;;21.29;60.94
21109;BME280;10712;52.944;9.098;2023-05-12T06:16:59;101746.41;;;21.35;61.03
21109;BME280;10712;52.944;9.098;2023-05-12T06:19:25;101756.19;;;21.47;60.57
21109;BME280;10712;52.944;9.098;2023-05-12T06:21:50;101758.63;;;21.50;60.56
21109;BME280;10712;52.944;9.098;2023-05-12T06:24:17;101759.06;;;21.55;60.80
21109;BME280;10712;52.944;9.098;2023-05-12T06:26:43;101755.09;;;21.59;60.51
21109;BME280;10712;52.944;9.098;2023-05-12T06:29:09;101769.13;;;21.64;60.22
21109;BME280;10712;52.944;9.098;2023-05-12T06:31:35;101770.56;;;21.68;60.41
21109;BME280;10712;52.944;9.098;2023-05-12T06:34:01;101754.84;;;21.72;60.61
21109;BME280;10712;52.944;9.098;2023-05-12T06:36:28;101758.91;;;21.77;60.27
21109;BME280;10712;52.944;9.098;2023-05-12T06:38:55;101763.47;;;21.86;60.77
21109;BME280;10712;52.944;9.098;2023-05-12T06:41:21;101763.09;;;21.91;60.42
21109;BME280;10712;52.944;9.098;2023-05-12T06:43:50;101764.41;;;21.96;60.27
21109;BME280;10712;52.944;9.098;2023-05-12T06:46:22;101764.13;;;21.99;60.74
21109;BME280;10712;52.944;9.098;2023-05-12T06:48:47;101767.31;;;22.05;60.53
21109;BME280;10712;52.944;9.098;2023-05-12T06:51:13;101768.72;;;22.09;60.34
21109;BME280;10712;52.944;9.098;2023-05-12T06:53:40;101771.59;;;22.17;60.50
21109;BME280;10712;52.944;9.098;2023-05-12T06:56:06;101783.88;;;22.21;60.48
21109;BME280;10712;52.944;9.098;2023-05-12T06:58:32;101775.91;;;22.29;60.18
21109;BME280;10712;52.944;9.098;2023-05-12T07:00:58;101784.78;;;22.31;60.40
21109;BME280;10712;52.944;9.098;2023-05-12T07:03:24;101777.38;;;22.33;60.10
21109;BME280;10712;52.944;9.098;2023-05-12T07:05:50;101777.94;;;22.36;60.01
21109;BME280;10712;52.944;9.098;2023-05-12T07:08:16;101781.22;;;22.40;59.92
21109;BME280;10712;52.944;9.098;2023-05-12T07:10:42;101773.50;;;22.45;59.94
21109;BME280;10712;52.944;9.098;2023-05-12T07:13:08;101777.09;;;22.55;59.51
21109;BME280;10712;52.944;9.098;2023-05-12T07:15:34;101785.69;;;22.60;59.61
21109;BME280;10712;52.944;9.098;2023-05-12T07:17:59;101780.81;;;22.64;59.25
21109;BME280;10712;52.944;9.098;2023-05-12T07:20:25;101791.25;;;22.68;59.49
21109;BME280;10712;52.944;9.098;2023-05-12T07:22:51;101786.00;;;22.76;58.97
21109;BME280;10712;52.944;9.098;2023-05-12T07:25:20;101789.16;;;22.82;58.97
21109;BME280;10712;52.944;9.098;2023-05-12T07:27:46;101792.28;;;22.87;58.64
21109;BME280;10712;52.944;9.098;2023-05-12T07:30:12;101781.56;;;22.95;58.18
21109;BME280;10712;52.944;9.098;2023-05-12T07:32:38;101782.00;;;23.00;57.92
21109;BME280;10712;52.944;9.098;2023-05-12T07:35:05;101785.72;;;23.08;57.83
21109;BME280;10712;52.944;9.098;2023-05-12T07:37:31;101787.69;;;23.16;57.60
21109;BME280;10712;52.944;9.098;2023-05-12T07:39:56;101779.38;;;23.27;57.50
21109;BME280;10712;52.944;9.098;2023-05-12T07:42:22;101780.50;;;23.34;57.19
21109;BME280;10712;52.944;9.098;2023-05-12T07:44:48;101787.34;;;23.38;57.11
21109;BME280;10712;52.944;9.098;2023-05-12T07:47:14;101784.75;;;23.46;57.18
21109;BME280;10712;52.944;9.098;2023-05-12T07:49:40;101782.47;;;23.51;57.14
21109;BME280;10712;52.944;9.098;2023-05-12T07:52:06;101783.59;;;23.59;57.04
21109;BME280;10712;52.944;9.098;2023-05-12T07:54:32;101788.47;;;23.65;56.51
21109;BME280;10712;52.944;9.098;2023-05-12T07:56:57;101783.44;;;23.70;55.88
21109;BME280;10712;52.944;9.098;2023-05-12T07:59:24;101788.66;;;23.81;55.64
21109;BME280;10712;52.944;9.098;2023-05-12T08:01:49;101787.19;;;23.96;55.76
21109;BME280;10712;52.944;9.098;2023-05-12T08:04:15;101786.28;;;24.05;55.25
21109;BME280;10712;52.944;9.098;2023-05-12T08:06:41;101779.22;;;24.12;55.04
21109;BME280;10712;52.944;9.098;2023-05-12T08:09:07;101780.47;;;24.18;54.84
21109;BME280;10712;52.944;9.098;2023-05-12T08:11:32;101776.16;;;24.25;54.79
21109;BME280;10712;52.944;9.098;2023-05-12T08:13:58;101778.25;;;24.31;54.33
21109;BME280;10712;52.944;9.098;2023-05-12T08:16:24;101783.00;;;24.29;54.16
21109;BME280;10712;52.944;9.098;2023-05-12T08:18:50;101782.94;;;24.39;53.81
21109;BME280;10712;52.944;9.098;2023-05-12T08:21:16;101785.59;;;24.48;53.58
21109;BME280;10712;52.944;9.098;2023-05-12T08:23:42;101791.28;;;24.55;53.75
21109;BME280;10712;52.944;9.098;2023-05-12T08:26:09;101793.06;;;24.64;54.10
21109;BME280;10712;52.944;9.098;2023-05-12T08:28:35;101795.88;;;24.72;54.08
21109;BME280;10712;52.944;9.098;2023-05-12T08:31:01;101790.59;;;24.88;53.75
21109;BME280;10712;52.944;9.098;2023-05-12T08:33:28;101786.25;;;24.95;53.59
21109;BME280;10712;52.944;9.098;2023-05-12T08:35:54;101792.78;;;25.02;53.27
21109;BME280;10712;52.944;9.098;2023-05-12T08:38:20;101795.25;;;25.14;53.21
21109;BME280;10712;52.944;9.098;2023-05-12T08:43:41;101783.13;;;25.34;53.01
21109;BME280;10712;52.944;9.098;2023-05-12T08:46:08;101795.81;;;25.43;52.94
21109;BME280;10712;52.944;9.098;2023-05-12T08:48:38;101792.28;;;25.50;53.01
21109;BME280;10712;52.944;9.098;2023-05-12T08:51:08;101784.16;;;25.59;53.05
21109;BME280;10712;52.944;9.098;2023-05-12T08:53:41;101790.69;;;25.66;52.76
21109;BME280;10712;52.944;9.098;2023-05-12T08:56:09;101784.06;;;25.68;52.63
21109;BME280;10712;52.944;9.098;2023-05-12T08:58:36;101786.84;;;25.76;52.44
21109;BME280;10712;52.944;9.098;2023-05-12T09:01:06;101794.72;;;25.87;51.87
21109;BME280;10712;52.944;9.098;2023-05-12T09:03:35;101790.38;;;26.03;51.29
21109;BME280;10712;52.944;9.098;2023-05-12T09:06:01;101788.69;;;26.10;50.70
21109;BME280;10712;52.944;9.098;2023-05-12T09:08:29;101796.91;;;26.18;50.07
21109;BME280;10712;52.944;9.098;2023-05-12T09:11:00;101795.97;;;26.27;49.62
21109;BME280;10712;52.944;9.098;2023-05-12T09:13:51;101794.59;;;26.31;48.95
21109;BME280;10712;52.944;9.098;2023-05-12T09:16:24;101798.41;;;26.46;48.04
21109;BME280;10712;52.944;9.098;2023-05-12T09:18:58;101795.03;;;26.60;47.52
21109;BME280;10712;52.944;9.098;2023-05-12T09:21:26;101788.19;;;26.64;48.22
21109;BME280;10712;52.944;9.098;2023-05-12T09:26:26;101792.09;;;26.70;48.70
21109;BME280;10712;52.944;9.098;2023-05-12T09:28:55;101799.97;;;26.73;48.70
21109;BME280;10712;52.944;9.098;2023-05-12T09:31:28;101800.84;;;26.74;49.04
21109;BME280;10712;52.944;9.098;2023-05-12T09:33:53;101799.31;;;26.87;48.75
21109;BME280;10712;52.944;9.098;2023-05-12T09:36:24;101799.84;;;26.91;48.62
21109;BME280;10712;52.944;9.098;2023-05-12T09:39:05;101802.22;;;26.86;48.80
21109;BME280;10712;52.944;9.098;2023-05-12T09:41:36;101793.31;;;26.59;46.99
21109;BME280;10712;52.944;9.098;2023-05-12T09:44:03;101797.44;;;26.80;47.80
21109;BME280;10712;52.944;9.098;2023-05-12T09:46:29;101798.47;;;26.87;48.41
21109;BME280;10712;52.944;9.098;2023-05-12T09:48:56;101800.38;;;26.94;48.42
21109;BME280;10712;52.944;9.098;2023-05-12T09:51:24;101796.97;;;27.00;48.40
21109;BME280;10712;52.944;9.098;2023-05-12T09:53:50;101803.97;;;27.03;47.61
21109;BME280;10712;52.944;9.098;2023-05-12T09:56:17;101802.09;;;27.03;46.88
21109;BME280;10712;52.944;9.098;2023-05-12T09:58:47;101803.63;;;27.06;46.20
21109;BME280;10712;52.944;9.098;2023-05-12T10:01:18;101803.47;;;27.24;45.16
21109;BME280;10712;52.944;9.098;2023-05-12T10:03:51;101805.84;;;27.35;44.62
21109;BME280;10712;52.944;9.098;2023-05-12T10:06:32;101793.31;;;27.49;45.04
21109;BME280;10712;52.944;9.098;2023-05-12T10:09:19;101796.06;;;27.57;45.08
21109;BME280;10712;52.944;9.098;2023-05-12T10:11:46;101792.97;;;27.68;44.84
21109;BME280;10712;52.944;9.098;2023-05-12T10:14:16;101783.00;;;27.75;44.67
21109;BME280;10712;52.944;9.098;2023-05-12T10:16:44;101785.03;;;27.81;44.43
21109;BME280;10712;52.944;9.098;2023-05-12T10:19:12;101785.19;;;27.88;43.33
21109;BME280;10712;52.944;9.098;2023-05-12T10:21:42;101790.50;;;27.89;43.43
21109;BME280;10712;52.944;9.098;2023-05-12T10:24:13;101785.94;;;28.12;42.65
21109;BME280;10712;52.944;9.098;2023-05-12T10:26:44;101784.53;;;28.25;41.66
21109;BME280;10712;52.944;9.098;2023-05-12T10:29:10;101790.88;;;28.25;40.03
21109;BME280;10712;52.944;9.098;2023-05-12T10:31:37;101789.56;;;28.44;39.56
21109;BME280;10712;52.944;9.098;2023-05-12T10:34:04;101780.44;;;28.51;39.88
21109;BME280;10712;52.944;9.098;2023-05-12T10:36:49;101776.78;;;28.59;40.16
21109;BME280;10712;52.944;9.098;2023-05-12T10:39:16;101784.22;;;28.73;39.40
21109;BME280;10712;52.944;9.098;2023-05-12T10:41:42;101780.97;;;28.78;39.23
21109;BME280;10712;52.944;9.098;2023-05-12T10:44:08;101785.59;;;28.77;40.31
21109;BME280;10712;52.944;9.098;2023-05-12T10:46:35;101789.50;;;28.83;40.37
21109;BME280;10712;52.944;9.098;2023-05-12T10:49:09;101790.72;;;28.80;39.76
21109;BME280;10712;52.944;9.098;2023-05-12T10:54:11;101793.53;;;28.95;38.73
21109;BME280;10712;52.944;9.098;2023-05-12T10:56:43;101783.75;;;28.92;39.14
21109;BME280;10712;52.944;9.098;2023-05-12T10:59:24;101780.72;;;28.87;40.08
21109;BME280;10712;52.944;9.098;2023-05-12T11:02:22;101786.25;;;28.79;39.89
21109;BME280;10712;52.944;9.098;2023-05-12T11:05:01;101783.53;;;28.79;40.18
21109;BME280;10712;52.944;9.098;2023-05-12T11:07:31;101786.25;;;28.79;40.85
21109;BME280;10712;52.944;9.098;2023-05-12T11:10:01;101780.03;;;28.85;40.79
21109;BME280;10712;52.944;9.098;2023-05-12T11:12:30;101783.59;;;28.94;40.40
21109;BME280;10712;52.944;9.098;2023-05-12T11:14:59;101790.97;;;28.93;38.79
21109;BME280;10712;52.944;9.098;2023-05-12T11:17:26;101785.97;;;28.97;39.16
21109;BME280;10712;52.944;9.098;2023-05-12T11:19:52;101785.97;;;29.12;39.17
21109;BME280;10712;52.944;9.098;2023-05-12T11:22:20;101786.47;;;29.15;37.52
21109;BME280;10712;52.944;9.098;2023-05-12T11:24:48;101782.53;;;29.18;36.67
21109;BME280;10712;52.944;9.098;2023-05-12T11:27:17;101782.53;;;29.18;37.14
21109;BME280;10712;52.944;9.098;2023-05-12T11:29:54;101780.63;;;29.33;36.89
21109;BME280;10712;52.944;9.098;2023-05-12T11:32:20;101778.13;;;29.46;36.45
21109;BME280;10712;52.944;9.098;2023-05-12T11:34:45;101775.59;;;29.59;36.37
21109;BME280;10712;52.944;9.098;2023-05-12T11:37:12;101774.84;;;29.65;35.73
21109;BME280;10712;52.944;9.098;2023-05-12T11:39:38;101779.84;;;29.62;35.65
21109;BME280;10712;52.944;9.098;2023-05-12T11:42:07;101785.63;;;29.52;36.24
21109;BME280;10712;52.944;9.098;2023-05-12T11:44:35;101782.53;;;29.32;36.88
21109;BME280;10712;52.944;9.098;2023-05-12T11:49:46;101794.97;;;29.06;37.37
21109;BME280;10712;52.944;9.098;2023-05-12T11:52:13;101797.78;;;28.97;37.63
21109;BME280;10712;52.944;9.098;2023-05-12T11:54:57;101793.16;;;28.75;38.45
21109;BME280;10712;52.944;9.098;2023-05-12T11:57:31;101795.81;;;28.60;38.29
21109;BME280;10712;52.944;9.098;2023-05-12T12:00:01;101794.44;;;28.56;38.75
21109;BME280;10712;52.944;9.098;2023-05-12T12:02:32;101797.41;;;28.55;38.97
21109;BME280;10712;52.944;9.098;2023-05-12T12:04:58;101794.66;;;28.55;38.95
21109;BME280;10712;52.944;9.098;2023-05-12T12:07:32;101792.03;;;28.62;39.01
21109;BME280;10712;52.944;9.098;2023-05-12T12:10:11;101791.06;;;28.77;38.03
21109;BME280;10712;52.944;9.098;2023-05-12T12:12:38;101787.19;;;28.94;36.45
21109;BME280;10712;52.944;9.098;2023-05-12T12:15:04;101780.22;;;29.07;35.98
21109;BME280;10712;52.944;9.098;2023-05-12T12:17:30;101779.84;;;29.10;35.85
21109;BME280;10712;52.944;9.098;2023-05-12T12:19:57;101779.19;;;29.08;35.49
21109;BME280;10712;52.944;9.098;2023-05-12T12:22:23;101775.09;;;29.04;35.38
21109;BME280;10712;52.944;9.098;2023-05-12T12:24:48;101787.19;;;28.94;35.06
21109;BME280;10712;52.944;9.098;2023-05-12T12:27:14;101790.22;;;28.99;33.20
21109;BME280;10712;52.944;9.098;2023-05-12T12:29:40;101783.75;;;28.92;33.41
21109;BME280;10712;52.944;9.098;2023-05-12T12:32:06;101787.34;;;28.93;33.07
21109;BME280;10712;52.944;9.098;2023-05-12T12:34:33;101785.19;;;28.88;33.61
21109;BME280;10712;52.944;9.098;2023-05-12T12:36:59;101789.25;;;28.92;33.62
21109;BME280;10712;52.944;9.098;2023-05-12T12:39:25;101788.81;;;29.04;33.81
21109;BME280;10712;52.944;9.098;2023-05-12T12:41:52;101788.72;;;29.12;33.60
21109;BME280;10712;52.944;9.098;2023-05-12T12:44:18;101784.31;;;29.11;33.56
21109;BME280;10712;52.944;9.098;2023-05-12T12:46:44;101797.41;;;29.01;33.21
21109;BME280;10712;52.944;9.098;2023-05-12T12:49:10;101792.38;;;28.89;33.50
21109;BME280;10712;52.944;9.098;2023-05-12T12:51:36;101791.88;;;28.86;33.78
21109;BME280;10712;52.944;9.098;2023-05-12T12:54:02;101787.91;;;28.88;33.89
21109;BME280;10712;52.944;9.098;2023-05-12T12:56:28;101784.06;;;28.97;33.91
21109;BME280;10712;52.944;9.098;2023-05-12T12:58:54;101779.19;;;29.08;33.69
21109;BME280;10712;52.944;9.098;2023-05-12T13:01:21;101780.44;;;29.20;33.34